Time;durP1;ratioP1;P1;durP2;ratioP2;P2;SDS_P1;SDS_P2;PMS_P1;PMS_P2;Temp;Humidity;BMP_temperature;BMP_pressure;BME280_temperature;BME280_humidity;BME280_pressure;Samples;Min_cycle;Max_cycle;Signal;HPM_P1;HPM_P2
2023/05/22 00:01:03;;;;;;;19.63;8.38;;;;;;;17.17;69.78;101744.28;5092072;28;20023;-77
2023/05/22 00:03:29;;;;;;;23.45;9.05;;;;;;;17.07;69.86;101747.78;5091433;28;20540;-77
2023/05/22 00:06:01;;;;;;;25.02;9.00;;;;;;;16.97;70.08;101745.13;5069295;28;20088;-78
2023/05/22 00:08:29;;;;;;;19.33;8.80;;;;;;;17.13;69.91;101743.41;5082194;28;20494;-79
2023/05/22 00:10:55;;;;;;;21.42;8.77;;;;;;;17.11;69.58;101733.72;5072901;28;20085;-78
2023/05/22 00:13:20;;;;;;;21.13;8.60;;;;;;;17.12;69.71;101738.13;5072971;28;20288;-78
2023/05/22 00:15:48;;;;;;;23.42;9.25;;;;;;;17.13;69.72;101735.50;5074309;28;20040;-78
2023/05/22 00:18:14;;;;;;;20.15;9.18;;;;;;;17.17;69.36;101734.63;5072499;28;20045;-81
2023/05/22 00:20:39;;;;;;;20.00;9.05;;;;;;;17.22;68.82;101735.50;5076000;28;20086;-78
2023/05/22 00:23:12;;;;;;;20.80;8.63;;;;;;;17.11;69.44;101734.63;5070362;28;20029;-76
2023/05/22 00:25:38;;;;;;;17.48;8.23;;;;;;;17.29;68.79;101734.63;5073893;28;20047;-78
2023/05/22 00:28:04;;;;;;;22.08;9.07;;;;;;;17.11;69.42;101729.34;5078385;28;20021;-80
2023/05/22 00:30:30;;;;;;;19.30;9.35;;;;;;;17.01;69.78;101727.59;5073194;28;20394;-78
2023/05/22 00:32:56;;;;;;;22.83;9.80;;;;;;;17.11;69.68;101731.09;5056940;28;20036;-79
2023/05/22 00:35:24;;;;;;;17.67;8.32;;;;;;;17.26;68.97;101726.69;5081616;28;20370;-79
2023/05/22 00:37:49;;;;;;;21.55;9.25;;;;;;;17.19;69.05;101734.63;5080576;28;20100;-78
2023/05/22 00:40:15;;;;;;;21.73;8.85;;;;;;;17.23;68.75;101734.63;5081182;28;20440;-78
2023/05/22 00:42:42;;;;;;;21.67;8.85;;;;;;;17.17;69.12;101734.63;5076371;28;20040;-77
2023/05/22 00:45:10;;;;;;;23.50;9.35;;;;;;;17.08;69.51;101734.59;5086451;28;20036;-76
2023/05/22 00:47:35;;;;;;;22.60;9.60;;;;;;;17.06;69.48;101736.38;5093468;28;20036;-77
2023/05/22 00:50:02;;;;;;;17.05;8.63;;;;;;;17.24;68.83;101736.38;5081285;22;20033;-43
2023/05/22 00:52:27;;;;;;;18.27;8.70;;;;;;;17.24;68.79;101735.50;5029526;28;20517;-46
2023/05/22 00:54:53;;;;;;;20.20;9.65;;;;;;;17.12;69.63;101735.50;5030141;28;20112;-45
2023/05/22 00:57:20;;;;;;;22.67;9.00;;;;;;;17.28;69.55;101734.59;5047061;28;20060;-44
2023/05/22 00:59:47;;;;;;;21.20;8.82;;;;;;;17.35;69.34;101739.00;5046778;28;20397;-44
2023/05/22 01:02:15;;;;;;;19.15;8.60;;;;;;;17.43;69.00;101730.22;5048177;28;20381;-44
2023/05/22 01:04:47;;;;;;;22.30;9.93;;;;;;;17.21;69.59;101731.09;5051286;28;20037;-44
2023/05/22 01:07:12;;;;;;;24.40;9.90;;;;;;;17.05;70.35;101724.06;5053210;28;20029;-49
2023/05/22 01:09:37;;;;;;;27.67;9.82;;;;;;;16.84;70.93;101730.19;5062027;28;20049;-48
2023/05/22 01:12:19;;;;;;;23.27;10.52;;;;;;;16.81;71.11;101716.16;5051295;28;20044;-48
2023/05/22 01:15:19;;;;;;;23.30;10.65;;;;;;;16.75;71.37;101703.88;5050844;28;20392;-44
2023/05/22 01:18:05;;;;;;;26.77;11.00;;;;;;;16.76;71.08;101697.72;5050562;28;20048;-45
2023/05/22 01:20:37;;;;;;;26.85;12.25;;;;;;;16.88;71.30;101704.75;5050503;28;20411;-51
2023/05/22 01:23:34;;;;;;;20.30;10.38;;;;;;;17.17;69.65;101708.25;5050357;28;20037;-48
2023/05/22 01:26:14;;;;;;;22.80;10.93;;;;;;;17.20;69.18;101710.88;5050416;28;20083;-46
2023/05/22 01:28:43;;;;;;;21.02;11.25;;;;;;;17.16;69.40;101710.91;5050445;28;20128;-43
2023/05/22 01:31:12;;;;;;;28.75;12.45;;;;;;;16.87;70.50;101706.50;5050104;28;20128;-48
2023/05/22 01:33:45;;;;;;;30.65;13.27;;;;;;;16.74;71.34;101701.22;5050415;28;20620;-45
2023/05/22 01:36:13;;;;;;;25.52;12.25;;;;;;;17.00;70.59;101687.19;5050637;28;20033;-44
2023/05/22 01:38:40;;;;;;;26.30;13.00;;;;;;;16.96;70.36;101689.81;5050267;28;20029;-44
2023/05/22 01:41:06;;;;;;;29.92;13.63;;;;;;;16.77;71.07;101691.56;5050555;28;20043;-48
2023/05/22 01:43:31;;;;;;;27.95;13.48;;;;;;;16.59;71.94;101673.97;5050303;28;20033;-45
2023/05/22 01:45:57;;;;;;;31.02;14.10;;;;;;;16.59;71.80;101667.81;5049797;28;20029;-45
2023/05/22 01:48:22;;;;;;;34.53;13.60;;;;;;;16.53;72.14;101659.91;5050054;28;20040;-46
2023/05/22 01:50:52;;;;;;;31.27;14.30;;;;;;;16.53;72.61;101652.88;5049736;28;20178;-47
2023/05/22 01:53:31;;;;;;;30.27;13.63;;;;;;;16.60;72.30;101649.41;5049914;28;20104;-45
2023/05/22 01:56:05;;;;;;;27.95;13.82;;;;;;;16.45;73.01;101641.47;5049883;28;20163;-52
2023/05/22 01:58:41;;;;;;;26.15;13.23;;;;;;;16.63;73.03;101645.91;5050271;28;20033;-48
2023/05/22 02:01:09;;;;;;;30.77;13.73;;;;;;;16.73;72.09;101642.41;5049933;28;20025;-43
2023/05/22 02:03:36;;;;;;;29.65;13.13;;;;;;;16.75;72.14;101640.66;5049876;28;20032;-49
2023/05/22 02:06:05;;;;;;;25.02;12.60;;;;;;;16.72;72.45;101639.75;5049818;28;20032;-46
2023/05/22 02:08:30;;;;;;;26.42;12.80;;;;;;;16.80;72.13;101638.91;5049931;28;20530;-44
2023/05/22 02:10:58;;;;;;;27.20;12.18;;;;;;;16.68;72.11;101636.25;5050172;28;20041;-48
2023/05/22 02:13:23;;;;;;;28.73;12.45;;;;;;;16.56;72.83;101638.84;5050422;28;20408;-45
2023/05/22 02:15:50;;;;;;;26.60;11.77;;;;;;;16.73;72.27;101633.63;5050461;28;20036;-47
2023/05/22 02:18:15;;;;;;;24.77;12.27;;;;;;;16.68;72.33;101627.50;5051053;28;20025;-43
2023/05/22 02:20:41;;;;;;;28.33;12.35;;;;;;;16.62;72.61;101623.09;5052171;28;20029;-44
2023/05/22 02:23:06;;;;;;;25.95;11.82;;;;;;;16.87;71.82;101626.63;5051696;28;20028;-43
2023/05/22 02:25:32;;;;;;;30.50;12.70;;;;;;;16.58;72.67;101627.47;5051953;28;20099;-46
2023/05/22 02:27:57;;;;;;;29.77;12.98;;;;;;;16.53;73.30;101616.03;5050947;28;20090;-45
2023/05/22 02:30:22;;;;;;;23.70;12.05;;;;;;;16.72;72.57;101624.84;5050120;28;20110;-45
2023/05/22 02:32:47;;;;;;;25.20;12.13;;;;;;;16.84;71.66;101618.69;5049494;28;20090;-48
2023/05/22 02:35:13;;;;;;;29.73;13.13;;;;;;;16.54;72.89;101609.00;5050919;28;20045;-44
2023/05/22 02:37:38;;;;;;;33.45;13.15;;;;;;;16.77;72.40;101609.91;5049963;28;20064;-45
2023/05/22 02:40:05;;;;;;;29.45;12.65;;;;;;;16.93;71.68;101610.81;5050597;28;20040;-46
2023/05/22 02:42:30;;;;;;;27.52;12.63;;;;;;;16.84;71.95;101616.94;5049256;28;20035;-44
2023/05/22 02:44:55;;;;;;;26.48;12.38;;;;;;;17.04;70.92;101632.75;5048912;28;20033;-46
2023/05/22 02:47:21;;;;;;;26.38;13.00;;;;;;;16.94;70.73;101626.63;5049560;28;20059;-45
2023/05/22 02:49:46;;;;;;;34.35;13.82;;;;;;;16.74;71.85;101623.09;5048678;28;20115;-43
2023/05/22 02:52:12;;;;;;;28.00;13.70;;;;;;;16.89;71.67;101625.75;5048681;28;20033;-43
2023/05/22 02:54:37;;;;;;;29.45;13.32;;;;;;;16.91;71.87;101623.97;5048719;28;20032;-44
2023/05/22 02:57:03;;;;;;;26.30;13.23;;;;;;;17.02;71.28;101622.19;5048470;28;20041;-45
2023/05/22 02:59:28;;;;;;;31.60;13.90;;;;;;;16.62;72.68;101621.34;5048585;28;20522;-44
2023/05/22 03:01:54;;;;;;;36.28;14.35;;;;;;;16.80;72.26;101620.47;5048413;28;20029;-44
2023/05/22 03:04:19;;;;;;;28.20;13.30;;;;;;;16.94;72.04;101625.75;5049157;28;20039;-47
2023/05/22 03:06:45;;;;;;;30.90;12.98;;;;;;;17.00;71.19;101631.88;5048858;28;20044;-44
2023/05/22 03:09:10;;;;;;;31.27;13.40;;;;;;;16.92;71.43;101636.25;5048668;28;20048;-45
2023/05/22 03:11:35;;;;;;;28.73;13.50;;;;;;;16.94;71.61;101631.00;5048050;28;20041;-46
2023/05/22 03:14:01;;;;;;;32.97;13.50;;;;;;;17.02;70.97;101637.13;5048011;28;20036;-44
2023/05/22 03:16:26;;;;;;;29.63;12.23;;;;;;;17.14;70.63;101645.00;5048179;28;20167;-44
2023/05/22 03:19:12;;;;;;;27.80;13.35;;;;;;;17.19;70.67;101635.38;5048718;28;20040;-45
2023/05/22 03:21:39;;;;;;;24.02;13.07;;;;;;;17.26;70.45;101639.72;5048103;28;20033;-47
2023/05/22 03:24:04;;;;;;;28.52;13.13;;;;;;;17.17;71.10;101630.97;5030184;28;20029;-47
2023/05/22 03:26:30;;;;;;;29.77;14.10;;;;;;;17.21;71.08;101630.06;5048050;28;20418;-45
2023/05/22 03:28:56;;;;;;;28.58;13.10;;;;;;;17.38;70.56;101629.16;5048288;28;20029;-42
2023/05/22 03:31:23;;;;;;;33.88;13.18;;;;;;;17.30;71.00;101630.06;5048302;28;20430;-46
2023/05/22 03:33:48;;;;;;;32.58;13.55;;;;;;;17.31;70.85;101626.56;5030656;28;20033;-45
2023/05/22 03:36:13;;;;;;;26.80;12.90;;;;;;;17.40;70.67;101631.78;5047983;28;20090;-45
2023/05/22 03:38:38;;;;;;;32.53;14.30;;;;;;;17.02;71.47;101624.84;5047955;28;20495;-50
2023/05/22 03:41:04;;;;;;;27.83;13.73;;;;;;;17.15;71.56;101623.06;5048215;28;20040;-44
2023/05/22 03:43:29;;;;;;;23.85;12.30;;;;;;;17.43;70.58;101618.63;5030099;28;20040;-45
2023/05/22 03:45:55;;;;;;;27.27;12.95;;;;;;;17.47;70.07;101624.75;5048031;28;20025;-46
2023/05/22 03:48:20;;;;;;;27.00;12.40;;;;;;;17.54;69.87;101626.50;5048454;28;20445;-46
2023/05/22 03:50:45;;;;;;;21.42;11.35;;;;;;;17.60;70.00;101615.91;5047810;28;20269;-48
2023/05/22 03:53:11;;;;;;;28.27;12.80;;;;;;;17.49;69.87;101626.50;5047601;28;20457;-46
2023/05/22 03:55:36;;;;;;;29.75;12.68;;;;;;;17.53;69.90;101624.72;5047622;28;20443;-47
2023/05/22 03:58:01;;;;;;;23.02;11.25;;;;;;;17.63;69.78;101623.84;5047769;28;20698;-46
2023/05/22 04:00:26;;;;;;;31.83;13.10;;;;;;;17.37;69.72;101618.63;5048792;28;20033;-47
2023/05/22 04:02:53;;;;;;;26.98;12.60;;;;;;;17.28;70.81;101624.78;5048471;28;20045;-50
2023/05/22 04:05:18;;;;;;;27.58;12.90;;;;;;;17.44;70.11;101621.22;5030066;28;20175;-44
2023/05/22 04:07:44;;;;;;;25.25;12.00;;;;;;;17.59;69.87;101622.94;5047819;28;20123;-46
2023/05/22 04:10:10;;;;;;;28.05;12.85;;;;;;;17.52;69.85;101620.34;5047906;28;20044;-45
2023/05/22 04:12:35;;;;;;;26.00;12.90;;;;;;;17.39;69.66;101622.13;5047337;28;20037;-45
2023/05/22 04:15:00;;;;;;;27.95;12.30;;;;;;;17.46;70.04;101621.22;5048165;28;20037;-49
2023/05/22 04:17:32;;;;;;;30.27;13.07;;;;;;;17.44;70.33;101630.94;5047669;28;20044;-44
2023/05/22 04:19:59;;;;;;;26.65;12.45;;;;;;;17.36;70.12;101628.31;5047925;28;20284;-46
2023/05/22 04:22:29;;;;;;;24.75;12.45;;;;;;;17.14;71.25;101617.81;5047913;28;20091;-44
2023/05/22 04:24:55;;;;;;;25.35;11.98;;;;;;;17.32;71.01;101620.41;5047911;28;20036;-44
2023/05/22 04:27:21;;;;;;;25.73;12.68;;;;;;;17.55;70.17;101621.22;5048066;28;20032;-47
2023/05/22 04:29:47;;;;;;;28.90;11.93;;;;;;;17.76;69.46;101636.09;5047746;28;20032;-44
2023/05/22 04:32:17;;;;;;;23.30;10.63;;;;;;;17.81;69.47;101627.28;5047350;28;20033;-45
2023/05/22 04:34:46;;;;;;;26.85;11.38;;;;;;;17.87;68.80;101630.81;5048270;28;20029;-44
2023/05/22 04:37:13;;;;;;;23.05;11.73;;;;;;;17.85;68.64;101630.81;5049004;28;20496;-48
2023/05/22 04:39:39;;;;;;;28.08;11.60;;;;;;;17.59;69.61;101635.25;5052239;28;20036;-47
2023/05/22 04:42:04;;;;;;;26.02;11.73;;;;;;;17.81;69.12;101634.31;5051548;28;20036;-46
2023/05/22 04:44:33;;;;;;;29.88;12.40;;;;;;;17.75;69.09;101640.50;5051236;28;20098;-47
2023/05/22 04:46:59;;;;;;;26.40;11.20;;;;;;;17.77;69.37;101635.22;5051726;28;20514;-49
2023/05/22 04:49:25;;;;;;;26.60;12.77;;;;;;;17.59;69.62;101629.97;5051863;28;20037;-47
2023/05/22 04:51:50;;;;;;;27.45;11.88;;;;;;;17.43;69.88;101629.16;5053189;28;20086;-46
2023/05/22 04:54:15;;;;;;;23.98;11.70;;;;;;;17.55;70.21;101621.22;5053922;28;20487;-45
2023/05/22 04:56:40;;;;;;;24.83;11.25;;;;;;;17.67;69.41;101636.16;5051833;28;20037;-48
2023/05/22 04:59:07;;;;;;;22.38;11.23;;;;;;;17.83;68.66;101629.91;5052018;28;20116;-46
2023/05/22 05:01:33;;;;;;;25.17;11.93;;;;;;;17.54;69.51;101639.66;5052205;28;20041;-48
2023/05/22 05:03:59;;;;;;;25.55;12.23;;;;;;;17.70;69.41;101639.63;5051320;28;20036;-47
2023/05/22 05:06:24;;;;;;;29.38;12.35;;;;;;;17.66;69.32;101642.31;5051265;28;20041;-46
2023/05/22 05:08:51;;;;;;;25.35;12.27;;;;;;;17.76;68.86;101646.66;5051636;28;20507;-47
2023/05/22 05:11:17;;;;;;;27.92;11.93;;;;;;;17.77;69.06;101651.03;5051233;28;20040;-44
2023/05/22 05:13:42;;;;;;;26.23;11.50;;;;;;;17.91;69.30;101648.34;5033946;28;20033;-46
2023/05/22 05:16:07;;;;;;;25.92;12.25;;;;;;;17.85;69.20;101641.34;5053721;28;20041;-46
2023/05/22 05:18:33;;;;;;;32.88;12.10;;;;;;;17.62;70.40;101645.84;5054206;28;20100;-46
2023/05/22 05:20:58;;;;;;;27.58;12.55;;;;;;;17.70;70.10;101650.19;5054445;28;20037;-47
2023/05/22 05:23:24;;;;;;;28.65;12.75;;;;;;;17.82;69.32;101644.00;5056381;28;20626;-49
2023/05/22 05:25:49;;;;;;;29.98;13.32;;;;;;;17.61;69.90;101650.25;5055521;28;20036;-44
2023/05/22 05:28:14;;;;;;;30.00;12.52;;;;;;;18.16;68.79;101647.34;5062151;28;20056;-48
2023/05/22 05:30:40;;;;;;;26.33;11.90;;;;;;;18.22;68.00;101649.97;5071796;28;20037;-49
2023/05/22 05:33:05;;;;;;;28.45;12.50;;;;;;;18.47;67.45;101650.69;5069291;28;20423;-47
2023/05/22 05:35:31;;;;;;;31.80;13.02;;;;;;;18.17;68.14;101647.34;5061841;28;20036;-45
2023/05/22 05:37:57;;;;;;;25.48;11.77;;;;;;;18.52;67.36;101659.44;5052095;28;20029;-47
2023/05/22 05:40:22;;;;;;;26.08;12.35;;;;;;;18.46;67.22;101667.41;5051982;28;20064;-44
2023/05/22 05:42:47;;;;;;;29.90;13.50;;;;;;;18.21;68.35;101659.63;5052330;28;20032;-45
2023/05/22 05:45:13;;;;;;;28.73;12.80;;;;;;;18.67;67.36;101669.03;5052331;28;20025;-48
2023/05/22 05:47:39;;;;;;;27.17;12.52;;;;;;;18.43;67.62;101668.28;5032652;28;20175;-48
2023/05/22 05:50:05;;;;;;;29.65;13.73;;;;;;;18.49;67.94;101667.38;5051257;28;20116;-45
2023/05/22 05:52:31;;;;;;;27.67;13.50;;;;;;;18.64;67.18;101667.31;5031950;28;20450;-46
2023/05/22 05:54:57;;;;;;;29.80;14.90;;;;;;;18.84;66.35;101673.34;5049961;28;20551;-45
2023/05/22 05:57:22;;;;;;;27.45;13.43;;;;;;;19.00;66.30;101671.44;5050536;28;20402;-45
2023/05/22 05:59:48;;;;;;;32.15;13.50;;;;;;;19.09;65.94;101684.56;5050149;28;20025;-48
2023/05/22 06:02:13;;;;;;;29.80;13.40;;;;;;;18.68;66.30;101684.88;5049605;28;20120;-45
2023/05/22 06:04:38;;;;;;;27.20;13.25;;;;;;;19.19;65.30;101690.66;5048572;28;20041;-43
2023/05/22 06:07:04;;;;;;;30.33;13.63;;;;;;;19.20;64.52;101687.13;5049640;28;20029;-46
2023/05/22 06:09:30;;;;;;;28.33;13.70;;;;;;;18.71;66.30;101682.25;5049940;28;20068;-49
2023/05/22 06:11:55;;;;;;;29.17;13.15;;;;;;;18.90;65.91;101698.84;5049485;28;20040;-45
2023/05/22 06:14:20;;;;;;;31.17;13.75;;;;;;;18.82;65.84;101698.88;5050103;28;20037;-49
2023/05/22 06:16:46;;;;;;;30.00;14.15;;;;;;;18.31;68.85;101686.84;5049554;28;20036;-48
2023/05/22 06:19:11;;;;;;;29.27;13.48;;;;;;;18.97;67.51;101697.88;5049619;28;20056;-51
2023/05/22 06:21:37;;;;;;;27.08;13.43;;;;;;;19.43;66.18;101703.66;5049886;28;20033;-49
2023/05/22 06:24:02;;;;;;;30.85;13.48;;;;;;;19.21;65.67;101696.81;5049722;28;20115;-44
2023/05/22 06:26:28;;;;;;;27.48;13.48;;;;;;;19.63;64.56;101698.19;5049037;28;20487;-46
2023/05/22 06:28:54;;;;;;;26.58;14.05;;;;;;;19.27;66.04;101692.31;5049761;28;20033;-46
2023/05/22 06:31:21;;;;;;;26.52;13.45;;;;;;;19.87;64.16;101692.63;5048888;28;20514;-48
2023/05/22 06:33:46;;;;;;;29.55;14.02;;;;;;;19.52;64.13;101698.28;5049358;28;20032;-46
2023/05/22 06:36:12;;;;;;;29.08;14.05;;;;;;;19.21;65.93;101692.38;5049355;28;20479;-45
2023/05/22 06:38:38;;;;;;;31.45;14.13;;;;;;;19.31;65.39;101699.34;5049290;28;20041;-48
2023/05/22 06:41:04;;;;;;;28.52;14.02;;;;;;;19.22;66.13;101699.41;5049179;28;20045;-44
2023/05/22 06:43:29;;;;;;;24.23;13.23;;;;;;;19.43;65.83;101696.59;5049075;28;20044;-42
2023/05/22 06:45:55;;;;;;;26.63;13.65;;;;;;;19.25;66.24;101695.88;5047422;28;20029;-45
2023/05/22 06:48:20;;;;;;;32.45;13.88;;;;;;;19.34;66.10;101701.94;5049284;28;20047;-45
2023/05/22 06:50:46;;;;;;;26.55;13.23;;;;;;;19.52;65.40;101698.28;5049302;28;20064;-45
2023/05/22 06:53:11;;;;;;;28.33;13.48;;;;;;;19.75;65.55;101691.00;5037520;28;20036;-48
2023/05/22 06:55:36;;;;;;;28.85;13.70;;;;;;;19.73;65.08;101697.19;5026287;28;20037;-45
2023/05/22 06:58:02;;;;;;;24.60;13.02;;;;;;;20.01;64.69;101685.38;5028319;28;20080;-45
2023/05/22 07:00:27;;;;;;;27.15;13.35;;;;;;;20.20;63.25;101686.00;5028171;28;20200;-46
2023/05/22 07:02:52;;;;;;;29.67;13.13;;;;;;;19.90;64.51;101684.63;5029064;28;20022;-50
2023/05/22 07:05:18;;;;;;;27.00;12.65;;;;;;;19.88;65.03;101694.38;5028640;28;20037;-47
2023/05/22 07:07:43;;;;;;;26.10;12.38;;;;;;;19.95;64.96;101692.50;5028132;28;20041;-48
2023/05/22 07:10:09;;;;;;;25.45;12.77;;;;;;;19.74;65.51;101696.28;5028421;28;20041;-45
2023/05/22 07:12:34;;;;;;;26.02;12.63;;;;;;;19.71;65.83;101699.84;5027776;28;20128;-46
2023/05/22 07:15:00;;;;;;;29.15;12.27;;;;;;;20.32;64.25;101701.75;5029282;28;20033;-47
2023/05/22 07:17:26;;;;;;;25.15;12.43;;;;;;;20.29;64.34;101706.19;5029378;28;20556;-44
2023/05/22 07:19:51;;;;;;;27.25;12.35;;;;;;;20.50;62.42;101711.22;5029438;28;20029;-52
2023/05/22 07:22:16;;;;;;;25.27;12.30;;;;;;;20.38;63.76;101709.63;5029127;28;20029;-46
2023/05/22 07:24:42;;;;;;;26.00;12.15;;;;;;;20.96;63.53;101717.59;5029879;28;20160;-44
2023/05/22 07:27:08;;;;;;;25.75;12.38;;;;;;;22.10;60.11;101722.63;5029468;28;20057;-47
2023/05/22 07:29:33;;;;;;;25.52;13.40;;;;;;;22.29;57.81;101731.97;5029758;28;20040;-45
2023/05/22 07:31:58;;;;;;;26.50;14.48;;;;;;;22.69;56.59;101728.44;5028829;28;20061;-45
2023/05/22 07:34:30;;;;;;;25.88;13.60;;;;;;;21.94;58.55;101731.78;5028975;28;20041;-46
2023/05/22 07:36:56;;;;;;;28.67;14.57;;;;;;;21.58;60.40;101718.31;5027985;28;20029;-44
2023/05/22 07:39:21;;;;;;;28.98;14.40;;;;;;;21.52;60.90;101715.78;5028776;28;20037;-45
2023/05/22 07:41:49;;;;;;;29.52;14.15;;;;;;;21.34;61.59;101716.13;5027047;28;20041;-48
2023/05/22 07:44:14;;;;;;;28.60;14.18;;;;;;;21.19;62.77;101711.94;5026500;28;20026;-47
2023/05/22 07:46:39;;;;;;;30.27;14.27;;;;;;;21.89;60.11;101712.41;5027683;28;20076;-46
2023/05/22 07:49:05;;;;;;;26.05;14.77;;;;;;;22.27;58.72;101724.00;5028302;28;20033;-46
2023/05/22 07:51:30;;;;;;;24.98;13.80;;;;;;;22.30;59.60;101720.44;5028784;28;20045;-45
2023/05/22 07:53:56;;;;;;;23.88;12.95;;;;;;;23.15;58.52;101718.47;5028107;28;20120;-46
2023/05/22 07:56:21;;;;;;;25.92;14.40;;;;;;;23.43;55.30;101718.59;5028461;28;20057;-47
2023/05/22 07:58:49;;;;;;;26.55;13.25;;;;;;;24.01;54.09;101720.59;5027696;28;20102;-45
2023/05/22 08:01:14;;;;;;;30.65;14.10;;;;;;;24.12;53.28;101717.59;5027266;28;20048;-44
2023/05/22 08:03:40;;;;;;;29.40;13.15;;;;;;;24.50;52.19;101721.81;5027810;28;20037;-45
2023/05/22 08:06:06;;;;;;;27.08;13.50;;;;;;;24.42;51.44;101713.19;5027815;28;20128;-47
2023/05/22 08:08:32;;;;;;;24.35;12.45;;;;;;;24.49;51.64;101706.75;5026286;28;20534;-47
2023/05/22 08:10:57;;;;;;;26.10;12.20;;;;;;;24.67;51.37;101709.69;5025744;28;20132;-49
2023/05/22 08:13:23;;;;;;;25.60;12.18;;;;;;;23.94;53.52;101720.78;5029759;28;20456;-45
2023/05/22 08:15:49;;;;;;;28.60;11.95;;;;;;;24.62;50.29;101713.44;5031774;28;20065;-44
2023/05/22 08:18:14;;;;;;;24.98;11.70;;;;;;;24.39;51.39;101719.50;5031831;28;20090;-47
2023/05/22 08:20:40;;;;;;;27.45;12.63;;;;;;;24.49;50.22;101714.75;5031998;28;20026;-44
2023/05/22 08:23:05;;;;;;;26.40;12.57;;;;;;;24.58;51.17;101714.44;5031107;28;20041;-46
2023/05/22 08:25:31;;;;;;;24.90;12.43;;;;;;;24.33;51.64;101721.47;5030260;28;20037;-45
2023/05/22 08:27:56;;;;;;;22.23;11.63;;;;;;;25.09;48.83;101711.91;5032295;28;20033;-52
2023/05/22 08:30:21;;;;;;;24.17;12.77;;;;;;;23.55;53.17;101717.44;5034328;28;20040;-46
2023/05/22 08:32:47;;;;;;;26.15;14.27;;;;;;;23.57;54.82;101712.94;5031487;28;20033;-48
2023/05/22 08:35:13;;;;;;;26.50;14.48;;;;;;;23.70;55.32;101712.59;5031116;28;20087;-45
2023/05/22 08:37:38;;;;;;;34.55;14.88;;;;;;;22.67;57.31;101713.38;5030978;28;20029;-47
2023/05/22 08:40:07;;;;;;;29.52;14.95;;;;;;;23.02;56.00;101706.38;5030617;28;20514;-45
2023/05/22 08:42:32;;;;;;;28.35;15.75;;;;;;;22.90;57.16;101707.53;5030404;28;20115;-46
2023/05/22 08:44:59;;;;;;;27.08;14.57;;;;;;;23.62;55.23;101705.72;5029836;28;20516;-49
2023/05/22 08:47:25;;;;;;;30.27;15.98;;;;;;;23.57;55.01;101705.84;5031378;28;20038;-47
2023/05/22 08:49:53;;;;;;;26.23;14.75;;;;;;;23.82;54.42;101698.06;5031263;28;20040;-46
2023/05/22 08:52:23;;;;;;;28.92;15.05;;;;;;;23.63;55.28;101703.00;5032490;28;20045;-47
2023/05/22 08:54:53;;;;;;;29.00;15.38;;;;;;;23.40;55.24;101702.72;5030932;28;20029;-43
2023/05/22 08:57:19;;;;;;;28.73;15.68;;;;;;;23.45;54.32;101706.13;5030899;28;20496;-45
2023/05/22 08:59:45;;;;;;;27.77;14.65;;;;;;;24.14;52.31;101697.13;5031176;28;22930;-45
2023/05/22 09:02:11;;;;;;;28.85;14.95;;;;;;;23.60;55.23;101704.91;5029574;28;20164;-45
2023/05/22 09:04:42;;;;;;;29.60;16.58;;;;;;;23.73;54.00;101700.97;5030621;28;20037;-45
2023/05/22 09:07:07;;;;;;;30.67;15.77;;;;;;;23.91;53.59;101692.44;5030710;28;20492;-47
2023/05/22 09:09:39;;;;;;;26.63;14.80;;;;;;;24.40;52.13;101699.00;5031417;28;20063;-45
2023/05/22 09:12:08;;;;;;;25.90;16.80;;;;;;;24.70;51.21;101705.22;5030277;28;20038;-46
2023/05/22 09:14:43;;;;;;;30.40;17.52;;;;;;;24.20;52.83;101700.50;5031652;28;20450;-44
2023/05/22 09:17:10;;;;;;;29.15;16.15;;;;;;;24.51;52.38;101696.91;5029569;28;20112;-46
2023/05/22 09:19:36;;;;;;;26.92;16.80;;;;;;;25.19;50.45;101694.66;5030663;28;20353;-48
2023/05/22 09:22:05;;;;;;;30.52;16.73;;;;;;;24.60;52.66;101700.16;5030300;28;20084;-47
2023/05/22 09:24:37;;;;;;;33.13;17.00;;;;;;;24.49;52.90;101701.41;5029317;28;20030;-48
2023/05/22 09:27:05;;;;;;;28.38;15.93;;;;;;;24.48;54.35;101700.53;5030876;28;20025;-46
2023/05/22 09:29:30;;;;;;;25.33;13.32;;;;;;;25.41;51.26;101702.81;5030556;28;20041;-48
2023/05/22 09:31:57;;;;;;;30.48;16.02;;;;;;;24.71;53.57;101699.78;5030131;28;20095;-46
2023/05/22 09:34:27;;;;;;;27.10;16.25;;;;;;;24.75;52.44;101703.25;5030849;28;20068;-50
2023/05/22 09:37:00;;;;;;;29.38;17.50;;;;;;;24.74;52.94;101699.72;5030411;28;20033;-47
2023/05/22 09:39:38;;;;;;;28.77;17.13;;;;;;;25.01;51.33;101693.50;5030150;28;20033;-51
2023/05/22 09:42:04;;;;;;;27.60;15.63;;;;;;;24.29;53.24;101701.13;5029931;28;20033;-45
2023/05/22 09:44:29;;;;;;;30.70;15.25;;;;;;;24.61;52.91;101695.69;5030064;28;20036;-46
2023/05/22 09:46:54;;;;;;;30.63;16.00;;;;;;;23.99;54.52;101702.88;5030518;28;20037;-49
2023/05/22 09:49:20;;;;;;;28.50;14.32;;;;;;;23.92;55.53;101701.31;5030436;28;20049;-46
2023/05/22 09:51:46;;;;;;;25.40;13.30;;;;;;;24.06;55.39;101697.34;5029635;28;20083;-48
2023/05/22 09:54:14;;;;;;;29.73;13.57;;;;;;;24.18;54.23;101702.34;5030388;28;20057;-46
2023/05/22 09:56:42;;;;;;;29.50;13.98;;;;;;;23.78;54.97;101696.41;5030402;28;20040;-45
2023/05/22 09:59:08;;;;;;;23.80;13.63;;;;;;;24.17;53.84;101697.91;5030442;28;20132;-46
2023/05/22 10:01:35;;;;;;;25.45;14.00;;;;;;;24.32;53.96;101691.28;5029805;28;20116;-48
2023/05/22 10:04:03;;;;;;;28.70;15.30;;;;;;;23.61;55.81;101691.53;5030176;28;20064;-52
2023/05/22 10:06:30;;;;;;;28.30;14.73;;;;;;;23.79;55.68;101699.00;5030876;28;20505;-47
2023/05/22 10:09:01;;;;;;;26.98;15.38;;;;;;;23.79;54.50;101699.00;5030521;28;20037;-50
2023/05/22 10:11:29;;;;;;;31.40;15.45;;;;;;;24.00;54.60;101702.84;5029204;28;20404;-52
2023/05/22 10:13:57;;;;;;;29.08;15.85;;;;;;;23.85;55.34;101703.28;5030054;28;20029;-48
2023/05/22 10:16:24;;;;;;;32.03;15.35;;;;;;;24.04;55.62;101699.16;5012415;28;20148;-49
2023/05/22 10:18:51;;;;;;;29.17;15.32;;;;;;;24.21;54.87;101696.06;5029775;28;20030;-51
2023/05/22 10:21:16;;;;;;;29.42;15.77;;;;;;;24.11;54.54;101700.75;5029446;28;20301;-46
2023/05/22 10:23:43;;;;;;;29.73;16.45;;;;;;;24.48;52.45;101697.88;5029839;28;20037;-50
2023/05/22 10:26:09;;;;;;;31.05;16.80;;;;;;;24.41;53.14;101692.75;5029424;28;20563;-46
2023/05/22 10:28:41;;;;;;;29.92;16.42;;;;;;;24.54;53.69;101700.34;5029247;28;20507;-45
2023/05/22 10:31:31;;;;;;;25.73;15.93;;;;;;;24.88;53.30;101708.16;5029298;28;20033;-48
2023/05/22 10:34:04;;;;;;;27.77;15.00;;;;;;;24.76;53.05;101708.56;5028964;28;20130;-47
2023/05/22 10:36:41;;;;;;;24.80;14.65;;;;;;;24.99;51.75;101706.03;5028803;28;20175;-47
2023/05/22 10:39:31;;;;;;;31.27;14.95;;;;;;;23.93;55.00;101703.94;5029579;28;20033;-45
2023/05/22 10:41:56;;;;;;;33.00;15.45;;;;;;;23.61;55.78;101706.63;5028929;28;20033;-45
2023/05/22 10:44:22;;;;;;;31.88;15.00;;;;;;;23.99;55.69;101701.09;5029747;28;20088;-51
2023/05/22 10:46:49;;;;;;;27.25;15.77;;;;;;;23.47;56.27;101708.81;5029007;28;20029;-50
2023/05/22 10:49:22;;;;;;;29.25;15.75;;;;;;;23.48;56.32;101692.81;5028881;28;20033;-45
2023/05/22 10:51:48;;;;;;;32.15;16.55;;;;;;;23.51;56.43;101694.47;5028573;28;20116;-48
2023/05/22 10:54:13;;;;;;;29.67;14.32;;;;;;;23.93;56.14;101682.63;5029272;28;20164;-49
2023/05/22 10:56:39;;;;;;;30.80;14.40;;;;;;;23.94;55.25;101686.16;5028854;28;20124;-46
2023/05/22 10:59:06;;;;;;;26.63;13.77;;;;;;;24.26;53.50;101686.13;5028164;28;20034;-47
2023/05/22 11:01:36;;;;;;;28.73;13.60;;;;;;;24.14;54.20;101686.47;5028968;28;20403;-50
2023/05/22 11:04:09;;;;;;;26.88;14.18;;;;;;;24.08;54.95;101684.88;5028929;28;20029;-47
2023/05/22 11:06:45;;;;;;;30.88;14.77;;;;;;;24.14;53.83;101686.47;5028692;28;20044;-47
2023/05/22 11:09:29;;;;;;;27.13;15.60;;;;;;;23.96;53.96;101687.00;5029153;28;20124;-49